Time;durP1;ratioP1;P1;durP2;ratioP2;P2;SDS_P1;SDS_P2;PMS_P1;PMS_P2;Temp;Humidity;BMP_temperature;BMP_pressure;BME280_temperature;BME280_humidity;BME280_pressure;Samples;Min_cycle;Max_cycle;Signal;HPM_P1;HPM_P2
2020/12/14 00:00:58;;;;;;;15.43;7.10;;;9.10;66.40;;;;;;6262184;28;20107;-73
2020/12/14 00:03:59;;;;;;;17.27;7.82;;;9.10;66.40;;;;;;6258827;28;20030;-73
2020/12/14 00:07:00;;;;;;;13.50;6.20;;;9.10;66.50;;;;;;6257099;28;20775;-73
2020/12/14 00:10:01;;;;;;;18.10;7.10;;;9.00;66.50;;;;;;6255540;28;20121;-73
2020/12/14 00:13:02;;;;;;;15.90;7.05;;;9.00;66.70;;;;;;6258916;28;20033;-73
2020/12/14 00:16:08;;;;;;;13.05;6.90;;;9.00;66.70;;;;;;6257821;28;20077;-73
2020/12/14 00:19:14;;;;;;;15.90;6.85;;;9.00;66.70;;;;;;6256239;28;20041;-73
2020/12/14 00:22:15;;;;;;;18.83;7.32;;;9.00;66.60;;;;;;6234090;28;20037;-73
2020/12/14 00:25:16;;;;;;;19.30;7.70;;;9.00;66.50;;;;;;6252266;28;20516;-72
2020/12/14 00:28:17;;;;;;;17.35;6.70;;;8.90;66.70;;;;;;6264909;28;20110;-72
2020/12/14 00:31:18;;;;;;;17.17;7.18;;;8.90;66.80;;;;;;6258808;28;20092;-72
2020/12/14 00:34:20;;;;;;;13.10;6.32;;;8.90;66.90;;;;;;6259396;28;20066;-72
2020/12/14 00:37:21;;;;;;;19.60;7.18;;;8.80;66.90;;;;;;6245486;28;20132;-74
2020/12/14 00:40:22;;;;;;;16.63;7.68;;;8.80;66.90;;;;;;6255249;28;20264;-73
2020/12/14 00:43:23;;;;;;;16.15;7.05;;;8.80;67.10;;;;;;6245125;28;20369;-73
2020/12/14 00:46:24;;;;;;;14.05;7.05;;;8.80;67.10;;;;;;6255973;28;20028;-73
2020/12/14 00:49:25;;;;;;;15.07;6.88;;;8.80;67.20;;;;;;6260090;28;20033;-73
2020/12/14 00:52:26;;;;;;;13.05;6.32;;;8.80;67.10;;;;;;6259615;28;20489;-73
2020/12/14 00:55:26;;;;;;;15.65;6.85;;;8.80;67.10;;;;;;6235395;28;20033;-74
2020/12/14 00:58:28;;;;;;;16.80;6.75;;;8.80;67.10;;;;;;6249878;28;20083;-73
2020/12/14 01:01:29;;;;;;;13.43;6.43;;;8.70;67.10;;;;;;6253352;28;20125;-73
2020/12/14 01:04:30;;;;;;;13.70;5.93;;;8.70;67.20;;;;;;6269032;28;20124;-72
2020/12/14 01:07:30;;;;;;;12.23;6.70;;;8.70;67.30;;;;;;6259127;28;20035;-73
2020/12/14 01:10:31;;;;;;;17.58;6.63;;;8.70;67.40;;;;;;6259890;28;20025;-72
2020/12/14 01:13:33;;;;;;;12.05;6.20;;;8.50;67.20;;;;;;6241340;28;20370;-72
2020/12/14 01:16:34;;;;;;;11.05;6.40;;;8.60;67.50;;;;;;6249466;28;20065;-72
2020/12/14 01:19:36;;;;;;;14.07;6.50;;;8.60;67.50;;;;;;6260482;28;20128;-72
2020/12/14 01:22:37;;;;;;;13.27;5.95;;;8.60;67.50;;;;;;6240375;28;20037;-72
2020/12/14 01:25:38;;;;;;;14.40;6.00;;;8.60;67.60;;;;;;6259148;28;20034;-72
2020/12/14 01:28:39;;;;;;;14.88;6.30;;;8.60;67.50;;;;;;6232736;28;20044;-73
2020/12/14 01:31:40;;;;;;;15.20;7.13;;;8.70;67.70;;;;;;6228316;28;20037;-73
2020/12/14 01:34:40;;;;;;;14.13;6.82;;;8.60;67.50;;;;;;6251629;28;20098;-73
2020/12/14 01:37:41;;;;;;;14.23;6.72;;;8.70;67.60;;;;;;6252952;28;20129;-73
2020/12/14 01:40:42;;;;;;;13.55;6.50;;;8.70;67.50;;;;;;6256528;28;20060;-73
2020/12/14 01:43:43;;;;;;;17.33;6.40;;;8.70;67.50;;;;;;6260057;28;20460;-72
2020/12/14 01:46:45;;;;;;;20.42;6.82;;;8.70;67.40;;;;;;6233355;28;20025;-72
2020/12/14 01:49:46;;;;;;;16.60;6.18;;;8.70;67.40;;;;;;6246948;28;20112;-71
2020/12/14 01:52:47;;;;;;;17.80;7.07;;;8.70;67.30;;;;;;6245178;28;20033;-71
2020/12/14 01:55:54;;;;;;;13.43;6.18;;;8.70;67.30;;;;;;6261093;28;20060;-72
2020/12/14 01:58:55;;;;;;;13.45;6.30;;;8.70;67.10;;;;;;6251312;28;20090;-72
2020/12/14 02:01:56;;;;;;;16.67;6.85;;;8.60;67.00;;;;;;6248553;28;20129;-73
2020/12/14 02:04:57;;;;;;;18.75;8.02;;;8.50;67.20;;;;;;6246436;28;20033;-73
2020/12/14 02:07:59;;;;;;;13.38;5.55;;;8.50;67.40;;;;;;6258988;28;20028;-72
2020/12/14 02:11:00;;;;;;;9.43;5.78;;;8.50;67.40;;;;;;6252688;28;20060;-73
2020/12/14 02:14:03;;;;;;;10.07;5.25;;;8.40;67.40;;;;;;6255693;28;20036;-72
2020/12/14 02:17:04;;;;;;;14.20;5.20;;;8.30;67.50;;;;;;6260401;28;20026;-72
2020/12/14 02:20:06;;;;;;;10.45;5.28;;;8.30;67.50;;;;;;6257635;28;20053;-73
2020/12/14 02:23:07;;;;;;;14.65;5.53;;;8.20;67.50;;;;;;6241311;28;20043;-73
2020/12/14 02:26:08;;;;;;;11.95;4.70;;;8.10;67.40;;;;;;6250509;28;20485;-71
2020/12/14 02:29:09;;;;;;;11.32;5.03;;;8.10;67.60;;;;;;6255629;28;20068;-72
2020/12/14 02:32:11;;;;;;;7.30;3.83;;;8.00;67.70;;;;;;6252901;28;20136;-72
2020/12/14 02:35:12;;;;;;;11.85;4.50;;;8.00;67.90;;;;;;6256742;28;20037;-71
2020/12/14 02:38:13;;;;;;;9.65;5.05;;;8.00;68.20;;;;;;6254157;28;20127;-73
2020/12/14 02:41:13;;;;;;;9.93;5.22;;;8.00;68.20;;;;;;6240952;28;20044;-72
2020/12/14 02:44:15;;;;;;;12.10;4.88;;;8.00;68.20;;;;;;6253097;28;20486;-74
2020/12/14 02:47:16;;;;;;;10.95;4.82;;;7.90;68.00;;;;;;6257587;28;20037;-71
2020/12/14 02:50:17;;;;;;;15.27;4.45;;;8.00;68.00;;;;;;6259873;28;20043;-73
2020/12/14 02:53:18;;;;;;;9.73;4.40;;;7.90;67.90;;;;;;6255627;28;20463;-73
2020/12/14 02:56:20;;;;;;;7.70;4.05;;;7.90;68.00;;;;;;6244053;28;20044;-73
2020/12/14 02:59:22;;;;;;;12.63;5.15;;;7.80;67.80;;;;;;6257563;28;20040;-73
2020/12/14 03:02:23;;;;;;;11.02;4.45;;;7.70;67.70;;;;;;6255851;28;20076;-73
2020/12/14 03:05:23;;;;;;;10.93;4.60;;;7.80;67.80;;;;;;6256050;28;20041;-73
2020/12/14 03:08:25;;;;;;;9.98;4.85;;;7.70;67.80;;;;;;6260417;28;20040;-72
2020/12/14 03:11:26;;;;;;;9.75;4.90;;;7.70;68.00;;;;;;6257714;28;20124;-73
2020/12/14 03:14:28;;;;;;;10.25;4.80;;;7.70;68.10;;;;;;6266134;28;20116;-71
2020/12/14 03:17:29;;;;;;;9.18;3.80;;;7.70;68.20;;;;;;6260936;28;20033;-72
2020/12/14 03:20:30;;;;;;;10.07;3.78;;;7.70;68.70;;;;;;6260254;28;20037;-71
2020/12/14 03:23:31;;;;;;;12.77;4.43;;;7.70;68.10;;;;;;6264005;28;20041;-72
2020/12/14 03:26:32;;;;;;;11.85;4.70;;;7.70;68.10;;;;;;6247373;28;20051;-74
2020/12/14 03:29:33;;;;;;;9.75;5.15;;;7.70;68.20;;;;;;6239876;28;20033;-73
2020/12/14 03:32:34;;;;;;;12.80;5.90;;;7.70;68.20;;;;;;6267103;28;20382;-71
2020/12/14 03:35:35;;;;;;;8.40;4.75;;;7.70;68.20;;;;;;6259551;28;20041;-72
2020/12/14 03:38:36;;;;;;;12.88;4.40;;;7.80;68.20;;;;;;6259063;28;20098;-72
2020/12/14 03:41:37;;;;;;;12.85;5.10;;;7.80;67.90;;;;;;6259349;28;20037;-71
2020/12/14 03:44:38;;;;;;;9.02;4.68;;;7.80;67.80;;;;;;6234193;28;20379;-73
2020/12/14 03:47:39;;;;;;;7.55;3.97;;;7.80;67.90;;;;;;6235452;28;20338;-73
2020/12/14 03:50:42;;;;;;;8.95;5.00;;;7.80;67.80;;;;;;6239172;28;20038;-73
2020/12/14 03:53:43;;;;;;;8.00;4.55;;;7.80;67.80;;;;;;6233213;28;20034;-73
2020/12/14 03:56:45;;;;;;;6.47;3.92;;;7.80;67.90;;;;;;6261166;28;20037;-73
2020/12/14 03:59:46;;;;;;;7.50;3.47;;;7.80;67.90;;;;;;6257743;28;20510;-73
2020/12/14 04:02:47;;;;;;;8.23;3.65;;;7.80;67.90;;;;;;6261530;28;20045;-73
2020/12/14 04:05:47;;;;;;;14.95;4.78;;;7.80;67.90;;;;;;6261929;28;20075;-73
2020/12/14 04:08:49;;;;;;;6.55;4.25;;;7.80;67.90;;;;;;6262316;28;20343;-73
2020/12/14 04:11:50;;;;;;;8.80;3.85;;;7.80;68.00;;;;;;6261389;28;20040;-73
2020/12/14 04:14:51;;;;;;;6.30;3.67;;;7.80;68.00;;;;;;6261812;28;20045;-71
2020/12/14 04:17:52;;;;;;;6.80;3.38;;;7.80;68.20;;;;;;6258799;28;20041;-71
2020/12/14 04:20:54;;;;;;;5.70;3.13;;;7.80;68.30;;;;;;6258310;28;20109;-73
2020/12/14 04:23:54;;;;;;;6.28;3.17;;;7.80;68.30;;;;;;6245891;28;20036;-72
2020/12/14 04:26:55;;;;;;;8.25;3.72;;;7.90;68.20;;;;;;6258369;28;20397;-72
2020/12/14 04:29:56;;;;;;;7.88;4.18;;;7.90;68.10;;;;;;6258639;28;20351;-73
2020/12/14 04:32:58;;;;;;;8.50;3.47;;;8.00;68.10;;;;;;6259885;28;20037;-73
2020/12/14 04:35:59;;;;;;;7.75;3.40;;;8.10;68.00;;;;;;6236588;28;20088;-73
2020/12/14 04:39:00;;;;;;;6.03;3.50;;;8.10;67.80;;;;;;6248338;28;20041;-71
2020/12/14 04:42:01;;;;;;;9.38;3.92;;;8.10;67.60;;;;;;6247766;28;20034;-71
2020/12/14 04:45:04;;;;;;;9.20;3.80;;;8.10;67.40;;;;;;6244944;28;20041;-71
2020/12/14 04:48:05;;;;;;;7.43;3.60;;;8.10;67.10;;;;;;6245484;28;20371;-71
2020/12/14 04:51:06;;;;;;;9.82;3.80;;;8.00;67.20;;;;;;6258234;28;20063;-72
2020/12/14 04:54:08;;;;;;;8.05;4.43;;;8.00;67.30;;;;;;6259112;28;20037;-71
2020/12/14 04:57:12;;;;;;;5.75;2.55;;;8.00;67.40;;;;;;6245607;28;20030;-72
2020/12/14 05:00:14;;;;;;;7.43;3.38;;;8.00;67.30;;;;;;6258522;28;20370;-72
2020/12/14 05:03:15;;;;;;;6.80;2.75;;;7.90;67.20;;;;;;6262634;28;20044;-71
2020/12/14 05:06:16;;;;;;;6.05;2.90;;;7.80;67.20;;;;;;6259733;28;20037;-72
2020/12/14 05:09:20;;;;;;;6.30;2.78;;;7.80;67.30;;;;;;6261035;28;20042;-72
2020/12/14 05:12:22;;;;;;;8.05;3.25;;;7.80;67.40;;;;;;6245590;28;20880;-72
2020/12/14 05:15:26;;;;;;;6.97;3.05;;;7.70;67.50;;;;;;6249709;28;20041;-72
2020/12/14 05:18:28;;;;;;;7.57;3.75;;;7.70;67.50;;;;;;6243525;28;20048;-72
2020/12/14 05:21:48;;;;;;;6.60;3.55;;;7.70;67.70;;;;;;6261139;28;20049;-71
2020/12/14 05:24:52;;;;;;;6.07;3.13;;;7.60;67.70;;;;;;6256226;28;20091;-72
2020/12/14 05:28:16;;;;;;;6.30;3.17;;;7.60;67.70;;;;;;6249645;28;20029;-72
2020/12/14 05:31:18;;;;;;;6.65;3.35;;;7.60;67.80;;;;;;6257408;28;20068;-72
2020/12/14 05:34:19;;;;;;;7.15;3.70;;;7.60;67.80;;;;;;6256292;28;20512;-72
2020/12/14 05:37:20;;;;;;;11.82;4.60;;;7.50;67.80;;;;;;6260524;28;20116;-72
2020/12/14 05:40:32;;;;;;;9.30;4.32;;;7.50;67.90;;;;;;6257397;28;20052;-72
2020/12/14 05:43:34;;;;;;;5.68;3.25;;;7.40;68.00;;;;;;6261090;28;20482;-73
2020/12/14 05:46:35;;;;;;;7.32;3.65;;;7.40;68.10;;;;;;6257087;28;20048;-72
2020/12/14 05:49:37;;;;;;;10.98;4.38;;;7.40;68.20;;;;;;6263775;28;20041;-73
2020/12/14 05:52:48;;;;;;;6.00;3.47;;;7.40;68.30;;;;;;6240709;28;20044;-71
2020/12/14 05:55:49;;;;;;;11.13;4.05;;;7.20;68.30;;;;;;6244072;28;20117;-74
2020/12/14 05:58:54;;;;;;;9.35;4.90;;;7.40;68.40;;;;;;6247173;28;20047;-72
2020/12/14 06:01:56;;;;;;;11.27;4.75;;;7.40;68.40;;;;;;6259998;28;20029;-72
2020/12/14 06:04:58;;;;;;;7.68;4.18;;;7.40;68.40;;;;;;6257884;28;20029;-72
2020/12/14 06:08:01;;;;;;;6.05;3.72;;;7.40;68.50;;;;;;6241906;28;20348;-72
2020/12/14 06:11:04;;;;;;;9.50;4.50;;;7.40;68.50;;;;;;6251362;28;20032;-72
2020/12/14 06:14:08;;;;;;;7.97;3.95;;;7.40;68.50;;;;;;6259220;28;20359;-72
2020/12/14 06:17:11;;;;;;;10.77;4.75;;;7.50;68.50;;;;;;6243034;28;20026;-72
2020/12/14 06:20:22;;;;;;;7.40;3.55;;;7.50;68.50;;;;;;6234050;28;20040;-73
2020/12/14 06:23:25;;;;;;;8.43;3.50;;;7.50;68.40;;;;;;6259562;28;20033;-72
2020/12/14 06:26:27;;;;;;;11.52;4.07;;;7.50;68.20;;;;;;6227812;28;20197;-73
2020/12/14 06:29:30;;;;;;;9.15;4.10;;;7.50;68.20;;;;;;6253424;28;20048;-72
2020/12/14 06:32:37;;;;;;;10.13;4.43;;;7.50;68.20;;;;;;6258587;28;20045;-74
2020/12/14 06:35:50;;;;;;;12.73;3.88;;;7.50;68.30;;;;;;6261478;28;20125;-73
2020/12/14 06:38:53;;;;;;;5.90;3.15;;;7.50;68.00;;;;;;6260442;28;20132;-73
2020/12/14 06:42:13;;;;;;;7.85;4.20;;;7.50;67.80;;;;;;6253207;28;20034;-73
2020/12/14 06:45:18;;;;;;;6.55;3.90;;;7.50;67.90;;;;;;6258368;28;20091;-73
2020/12/14 06:48:41;;;;;;;9.15;4.05;;;7.50;67.90;;;;;;6250692;28;20034;-73
2020/12/14 06:51:52;;;;;;;6.32;2.90;;;7.40;68.10;;;;;;6255186;28;20099;-73
2020/12/14 06:54:53;;;;;;;6.97;3.97;;;7.40;68.20;;;;;;6251190;28;20037;-72
2020/12/14 06:57:55;;;;;;;8.25;3.53;;;7.40;68.30;;;;;;6245007;28;20362;-74
2020/12/14 07:00:57;;;;;;;14.65;3.72;;;7.40;68.40;;;;;;6257969;28;20477;-73
2020/12/14 07:04:02;;;;;;;7.95;3.75;;;7.50;68.10;;;;;;6258412;28;20505;-72
2020/12/14 07:07:06;;;;;;;8.55;4.00;;;7.50;68.10;;;;;;6256457;28;20366;-73
2020/12/14 07:10:12;;;;;;;10.18;4.78;;;7.50;68.00;;;;;;6259059;28;20025;-72
2020/12/14 07:13:30;;;;;;;9.98;3.65;;;7.50;67.90;;;;;;6256121;28;20057;-73
2020/12/14 07:16:31;;;;;;;10.43;3.88;;;7.50;67.80;;;;;;6244991;28;20033;-72
2020/12/14 07:19:38;;;;;;;8.00;3.83;;;7.50;67.70;;;;;;6256921;28;20481;-72
2020/12/14 07:22:52;;;;;;;11.15;4.70;;;7.50;67.70;;;;;;6253910;28;20176;-72
2020/12/14 07:25:55;;;;;;;8.23;3.30;;;7.50;67.90;;;;;;6252538;28;20107;-72
2020/12/14 07:28:56;;;;;;;7.80;4.10;;;7.60;67.90;;;;;;6259203;28;20458;-74
2020/12/14 07:32:03;;;;;;;6.00;2.83;;;7.60;67.80;;;;;;6238240;28;20068;-74
2020/12/14 07:35:06;;;;;;;8.70;3.13;;;7.70;67.70;;;;;;6258767;28;20128;-73
2020/12/14 07:38:11;;;;;;;7.22;3.88;;;7.70;67.60;;;;;;6258962;28;20068;-73
2020/12/14 07:41:12;;;;;;;7.93;3.83;;;7.60;67.50;;;;;;6256102;28;20033;-73
2020/12/14 07:44:13;;;;;;;6.53;4.20;;;7.60;67.50;;;;;;6239786;28;20053;-73
2020/12/14 07:47:21;;;;;;;8.05;4.10;;;7.70;67.60;;;;;;6260337;28;20045;-73
2020/12/14 07:50:23;;;;;;;7.15;3.90;;;7.60;67.50;;;;;;6259729;28;20037;-73
2020/12/14 07:53:24;;;;;;;11.30;4.78;;;7.60;67.40;;;;;;6242656;28;20086;-73
2020/12/14 07:56:25;;;;;;;12.85;4.97;;;7.60;67.30;;;;;;6265762;28;20041;-73
2020/12/14 07:59:28;;;;;;;9.82;4.10;;;7.60;67.40;;;;;;6246443;28;20053;-74
2020/12/14 08:02:31;;;;;;;10.88;4.03;;;7.60;67.50;;;;;;6265116;28;20124;-72
2020/12/14 08:05:32;;;;;;;8.77;3.58;;;7.60;67.40;;;;;;6255504;28;20110;-72
2020/12/14 08:08:33;;;;;;;6.47;4.35;;;7.60;67.50;;;;;;6244696;28;20041;-73
2020/12/14 08:11:34;;;;;;;8.60;3.53;;;7.60;67.50;;;;;;6233973;28;20046;-74
2020/12/14 08:14:35;;;;;;;5.03;3.08;;;7.60;67.50;;;;;;6224478;28;20057;-73
2020/12/14 08:17:36;;;;;;;8.48;3.35;;;7.70;67.50;;;;;;6218480;28;20061;-72
2020/12/14 08:20:42;;;;;;;8.52;4.30;;;7.70;67.50;;;;;;6236560;28;20033;-73
2020/12/14 08:23:43;;;;;;;9.52;3.42;;;7.80;67.50;;;;;;6249990;28;20045;-73
2020/12/14 08:26:46;;;;;;;14.73;4.35;;;7.80;67.60;;;;;;6257243;28;20045;-72
2020/12/14 08:30:07;;;;;;;8.15;3.97;;;7.90;67.60;;;;;;6260575;28;20041;-72
2020/12/14 08:33:13;;;;;;;4.95;2.97;;;8.00;67.50;;;;;;6255776;28;20120;-74
2020/12/14 08:36:16;;;;;;;5.82;3.47;;;8.10;67.30;;;;;;6243191;28;20064;-74
2020/12/14 08:39:17;;;;;;;8.50;3.58;;;8.20;67.10;;;;;;6261319;28;20394;-73
2020/12/14 08:42:21;;;;;;;9.15;3.15;;;8.40;66.90;;;;;;6248823;28;20063;-73
2020/12/14 08:45:25;;;;;;;9.23;3.47;;;8.40;66.60;;;;;;6253789;28;20443;-73
2020/12/14 08:48:29;;;;;;;8.60;4.13;;;8.50;66.20;;;;;;6262173;28;20442;-73
2020/12/14 08:51:32;;;;;;;9.80;3.92;;;8.70;66.20;;;;;;6257984;28;20036;-72
2020/12/14 08:54:33;;;;;;;9.88;3.55;;;8.90;65.90;;;;;;6256292;28;20959;-73
2020/12/14 08:57:34;;;;;;;10.55;5.03;;;9.00;65.60;;;;;;6252817;28;20045;-73
2020/12/14 09:00:36;;;;;;;9.93;3.47;;;9.10;65.10;;;;;;6263006;28;20532;-74
2020/12/14 09:03:46;;;;;;;11.52;4.68;;;9.30;64.90;;;;;;6257947;28;20040;-73
2020/12/14 09:06:47;;;;;;;11.18;3.97;;;9.30;64.60;;;;;;6241541;28;20370;-74
2020/12/14 09:09:47;;;;;;;7.35;3.08;;;9.40;64.60;;;;;;6257871;28;20076;-72
2020/12/14 09:12:49;;;;;;;4.35;2.78;;;9.60;64.40;;;;;;6266971;28;20052;-73
2020/12/14 09:15:54;;;;;;;8.45;4.00;;;9.70;64.10;;;;;;6213044;28;20099;-73
2020/12/14 09:18:55;;;;;;;5.50;3.00;;;9.80;63.80;;;;;;6254368;28;20439;-72
2020/12/14 09:21:56;;;;;;;7.50;3.10;;;9.90;63.30;;;;;;6255713;28;20462;-74
2020/12/14 09:24:57;;;;;;;6.13;3.10;;;9.90;62.70;;;;;;6259069;28;20029;-74
2020/12/14 09:28:00;;;;;;;7.15;3.80;;;10.00;62.60;;;;;;6243819;28;20098;-73
2020/12/14 09:31:07;;;;;;;15.00;4.35;;;10.00;62.40;;;;;;6271097;28;20041;-73
2020/12/14 09:34:08;;;;;;;7.93;3.53;;;10.10;62.10;;;;;;6262080;28;20544;-73
2020/12/14 09:37:09;;;;;;;5.15;2.83;;;10.20;61.80;;;;;;6260266;28;20280;-73
2020/12/14 09:40:10;;;;;;;6.13;2.70;;;10.20;61.50;;;;;;6258684;28;20051;-73
2020/12/14 09:43:11;;;;;;;5.20;2.35;;;10.30;61.30;;;;;;6250020;28;20049;-72
2020/12/14 09:46:12;;;;;;;7.60;3.33;;;10.30;61.20;;;;;;6243335;28;20060;-73
2020/12/14 09:49:13;;;;;;;9.55;3.58;;;10.30;61.00;;;;;;6262319;28;20041;-72
2020/12/14 09:52:13;;;;;;;9.65;4.88;;;10.40;61.30;;;;;;6260766;28;20182;-72
2020/12/14 09:55:14;;;;;;;13.95;4.22;;;10.50;60.70;;;;;;6257135;28;20120;-73
2020/12/14 09:58:15;;;;;;;16.05;6.45;;;10.60;60.40;;;;;;6253911;28;20041;-73
2020/12/14 10:01:16;;;;;;;9.00;4.18;;;10.70;60.10;;;;;;6254608;28;20041;-73
2020/12/14 10:04:17;;;;;;;9.32;4.20;;;10.90;59.60;;;;;;6225593;28;20029;-73
2020/12/14 10:07:18;;;;;;;5.13;3.58;;;11.00;58.80;;;;;;6255103;28;20033;-72
2020/12/14 10:10:19;;;;;;;15.73;7.55;;;11.00;58.60;;;;;;6246297;28;20044;-72
2020/12/14 10:13:20;;;;;;;20.08;8.57;;;11.10;58.40;;;;;;6261254;28;20460;-73
2020/12/14 10:16:21;;;;;;;21.13;8.50;;;11.10;58.60;;;;;;6243258;28;20481;-72
2020/12/14 10:19:24;;;;;;;11.65;4.28;;;11.20;58.80;;;;;;6235780;28;20044;-73
2020/12/14 10:22:26;;;;;;;7.78;3.38;;;11.30;58.40;;;;;;6259066;28;20037;-72
2020/12/14 10:25:27;;;;;;;7.35;2.90;;;11.40;57.90;;;;;;6253371;28;20040;-72
2020/12/14 10:28:28;;;;;;;6.10;2.97;;;11.60;57.50;;;;;;6255344;28;20058;-72
2020/12/14 10:31:33;;;;;;;4.38;2.42;;;11.70;57.10;;;;;;6254728;28;20529;-72
2020/12/14 10:34:34;;;;;;;12.05;5.80;;;11.80;57.10;;;;;;6261042;28;20022;-73
2020/12/14 10:37:34;;;;;;;16.20;6.97;;;12.10;56.20;;;;;;6244791;28;20049;-73
2020/12/14 10:40:35;;;;;;;9.75;4.40;;;12.30;56.00;;;;;;6263042;28;20045;-73
2020/12/14 10:43:36;;;;;;;9.50;3.13;;;12.50;55.90;;;;;;6259761;28;20045;-73
2020/12/14 10:46:37;;;;;;;4.70;2.25;;;12.80;54.80;;;;;;6259205;28;20040;-75
2020/12/14 10:49:38;;;;;;;8.30;2.75;;;12.90;53.90;;;;;;6256674;28;20045;-73
2020/12/14 10:52:40;;;;;;;10.57;3.30;;;12.90;54.20;;;;;;6234030;28;20099;-74
2020/12/14 10:55:41;;;;;;;4.05;2.28;;;12.90;54.50;;;;;;6232803;28;20128;-73
2020/12/14 10:58:42;;;;;;;8.32;3.70;;;13.20;54.30;;;;;;6221578;28;20042;-73
2020/12/14 11:01:43;;;;;;;8.07;3.35;;;13.50;53.40;;;;;;6247508;28;20037;-74
2020/12/14 11:04:45;;;;;;;5.80;2.75;;;13.90;52.20;;;;;;6230863;28;20038;-72
2020/12/14 11:07:46;;;;;;;7.63;3.28;;;14.20;51.80;;;;;;6231450;28;20042;-74
2020/12/14 11:10:48;;;;;;;8.65;3.00;;;14.60;51.20;;;;;;6244485;28;20040;-73
2020/12/14 11:13:49;;;;;;;5.93;2.50;;;15.10;50.20;;;;;;6228403;28;20112;-72
2020/12/14 11:16:51;;;;;;;11.18;4.25;;;15.60;49.20;;;;;;6262088;28;20124;-73
2020/12/14 11:19:52;;;;;;;4.35;2.17;;;16.10;48.10;;;;;;6259062;28;20052;-73
2020/12/14 11:22:53;;;;;;;4.43;2.00;;;16.50;46.80;;;;;;6241140;28;20068;-74
2020/12/14 11:25:53;;;;;;;2.67;1.77;;;16.70;45.70;;;;;;6256932;28;20167;-73
2020/12/14 11:28:55;;;;;;;3.28;2.00;;;17.00;44.60;;;;;;6254620;28;20033;-73
2020/12/14 11:31:55;;;;;;;11.77;5.18;;;17.10;43.60;;;;;;6261182;28;20041;-74
2020/12/14 11:34:56;;;;;;;7.57;3.03;;;17.10;43.80;;;;;;6262814;28;20045;-73
2020/12/14 11:37:57;;;;;;;6.05;3.03;;;17.10;43.80;;;;;;6226693;28;20053;-73
2020/12/14 11:40:59;;;;;;;2.97;2.17;;;16.80;44.20;;;;;;6222151;28;20037;-73
2020/12/14 11:44:00;;;;;;;10.85;4.63;;;16.50;44.40;;;;;;6228744;28;20037;-73
2020/12/14 11:47:01;;;;;;;8.90;3.15;;;16.10;44.90;;;;;;6261638;28;20080;-73
2020/12/14 11:50:04;;;;;;;4.90;2.10;;;15.70;45.10;;;;;;6258431;28;20034;-73
2020/12/14 11:53:08;;;;;;;6.93;3.25;;;15.40;46.10;;;;;;6265605;28;20360;-73
2020/12/14 11:56:09;;;;;;;5.00;2.35;;;15.10;47.40;;;;;;6257543;28;20395;-73
2020/12/14 11:59:12;;;;;;;4.25;2.78;;;15.00;47.10;;;;;;6235634;28;20038;-73
2020/12/14 12:02:15;;;;;;;6.93;2.83;;;14.70;47.50;;;;;;6237412;28;20044;-73
2020/12/14 12:05:16;;;;;;;9.00;3.30;;;14.50;47.90;;;;;;6237714;28;20104;-73
2020/12/14 12:08:16;;;;;;;4.72;2.42;;;14.30;48.10;;;;;;6223351;28;20129;-73
2020/12/14 12:11:17;;;;;;;4.50;2.33;;;14.10;48.70;;;;;;6236673;28;20044;-73
2020/12/14 12:14:18;;;;;;;5.50;2.67;;;14.00;49.20;;;;;;6234848;28;20395;-72
2020/12/14 12:17:20;;;;;;;6.95;3.55;;;13.90;49.50;;;;;;6265766;28;20407;-73
2020/12/14 12:20:22;;;;;;;14.60;3.25;;;13.90;49.80;;;;;;6257691;28;20136;-73
2020/12/14 12:23:23;;;;;;;8.20;3.50;;;13.80;50.20;;;;;;6260419;28;20366;-73
2020/12/14 12:26:25;;;;;;;6.35;2.80;;;13.80;50.40;;;;;;6248015;28;20033;-71
2020/12/14 12:29:26;;;;;;;11.63;3.47;;;13.90;50.60;;;;;;6250579;28;20051;-72
2020/12/14 12:32:27;;;;;;;9.88;2.97;;;13.90;50.80;;;;;;6258117;28;20379;-73
2020/12/14 12:35:28;;;;;;;6.28;2.92;;;14.00;51.00;;;;;;6263700;28;20401;-73
2020/12/14 12:38:29;;;;;;;8.18;4.03;;;14.00;51.10;;;;;;6259994;28;20036;-72
2020/12/14 12:41:30;;;;;;;8.63;4.35;;;14.20;51.40;;;;;;6259472;28;20498;-72
2020/12/14 12:44:31;;;;;;;12.98;5.45;;;14.20;51.40;;;;;;6259765;28;20036;-72
2020/12/14 12:47:32;;;;;;;10.60;3.40;;;14.30;51.50;;;;;;6264383;28;20362;-72
2020/12/14 12:50:35;;;;;;;6.18;3.60;;;14.30;51.40;;;;;;6257406;28;20125;-71
2020/12/14 12:53:37;;;;;;;5.55;3.13;;;14.50;51.40;;;;;;6259161;28;20485;-72
2020/12/14 12:56:37;;;;;;;5.28;2.63;;;14.50;51.40;;;;;;6260241;28;20037;-71
2020/12/14 12:59:38;;;;;;;6.47;2.75;;;14.60;51.40;;;;;;6266037;28;20033;-73
2020/12/14 13:02:39;;;;;;;6.78;2.83;;;14.60;51.20;;;;;;6262594;28;20136;-73
2020/12/14 13:05:41;;;;;;;6.10;2.53;;;14.60;51.10;;;;;;6236239;28;20438;-73
2020/12/14 13:08:42;;;;;;;4.95;2.65;;;14.60;50.90;;;;;;6196196;28;20034;-73
2020/12/14 13:11:45;;;;;;;4.28;2.25;;;14.60;50.50;;;;;;6240015;28;20117;-73
2020/12/14 13:14:47;;;;;;;6.78;2.53;;;14.60;50.40;;;;;;6247843;28;20408;-72
2020/12/14 13:17:48;;;;;;;4.40;2.17;;;14.80;50.30;;;;;;6259500;28;20083;-72
2020/12/14 13:20:49;;;;;;;6.68;1.77;;;14.60;50.00;;;;;;6259712;28;20037;-72
2020/12/14 13:23:51;;;;;;;3.40;1.77;;;14.70;49.90;;;;;;6258365;28;20033;-73
2020/12/14 13:26:52;;;;;;;10.85;2.17;;;14.70;49.70;;;;;;6260555;28;20068;-73
2020/12/14 13:29:54;;;;;;;5.43;2.33;;;14.60;49.80;;;;;;6255195;28;20120;-73
2020/12/14 13:32:55;;;;;;;5.32;1.95;;;14.70;49.80;;;;;;6260093;28;20102;-74
2020/12/14 13:35:57;;;;;;;5.22;2.60;;;14.70;49.60;;;;;;6259823;28;20045;-73
2020/12/14 13:38:58;;;;;;;7.20;2.72;;;14.70;49.60;;;;;;6235335;28;20048;-72
2020/12/14 13:41:59;;;;;;;5.60;2.97;;;14.80;49.70;;;;;;6240460;28;20056;-72
2020/12/14 13:45:00;;;;;;;7.45;2.35;;;14.80;49.80;;;;;;6257025;28;20056;-72
2020/12/14 13:48:02;;;;;;;8.88;2.70;;;14.90;49.50;;;;;;6256692;28;20037;-72
2020/12/14 13:51:04;;;;;;;6.07;2.20;;;14.80;49.40;;;;;;6256105;28;20044;-72
2020/12/14 13:54:05;;;;;;;10.00;4.97;;;14.80;49.50;;;;;;6259705;28;20036;-74
2020/12/14 13:57:06;;;;;;;4.35;2.47;;;14.80;49.50;;;;;;6248493;28;20060;-72
2020/12/14 14:00:07;;;;;;;11.65;2.10;;;14.70;49.40;;;;;;6258229;28;20068;-73
2020/12/14 14:03:08;;;;;;;6.63;2.10;;;14.70;49.40;;;;;;6254453;28;20038;-72
2020/12/14 14:06:09;;;;;;;3.47;2.20;;;14.70;49.70;;;;;;6257126;28;20037;-72
2020/12/14 14:09:10;;;;;;;7.85;2.00;;;14.70;49.70;;;;;;6221005;28;20443;-72
2020/12/14 14:12:11;;;;;;;4.97;2.30;;;14.60;49.80;;;;;;6231391;28;20095;-72
2020/12/14 14:15:12;;;;;;;5.95;1.80;;;14.60;49.90;;;;;;6230513;28;20438;-72
2020/12/14 14:18:13;;;;;;;5.43;2.53;;;14.60;49.90;;;;;;6215106;28;20033;-72
2020/12/14 14:21:15;;;;;;;6.15;2.50;;;14.60;49.90;;;;;;6257295;28;20037;-73
2020/12/14 14:24:16;;;;;;;7.15;2.30;;;14.50;50.50;;;;;;6258706;28;20450;-72
2020/12/14 14:27:20;;;;;;;4.10;2.28;;;14.50;50.00;;;;;;6254141;28;20040;-71
2020/12/14 14:30:23;;;;;;;8.10;2.72;;;14.50;50.10;;;;;;6260730;28;20136;-72
2020/12/14 14:33:24;;;;;;;4.57;2.70;;;14.50;50.30;;;;;;6236626;28;20149;-72
2020/12/14 14:36:24;;;;;;;9.68;3.45;;;14.40;50.30;;;;;;6245008;28;20413;-72
2020/12/14 14:39:28;;;;;;;6.72;2.85;;;14.40;50.50;;;;;;6261884;28;20079;-73
2020/12/14 14:42:29;;;;;;;10.02;2.85;;;14.30;50.60;;;;;;6258045;28;20036;-73
2020/12/14 14:45:30;;;;;;;4.32;2.75;;;14.20;50.70;;;;;;6257989;28;20033;-73
2020/12/14 14:48:31;;;;;;;7.72;2.92;;;14.20;50.90;;;;;;6242531;28;20469;-74
2020/12/14 14:51:32;;;;;;;4.55;2.45;;;14.10;51.00;;;;;;6256833;28;20029;-73
2020/12/14 14:54:33;;;;;;;8.55;2.83;;;14.10;51.20;;;;;;6245455;28;20454;-73
2020/12/14 14:57:35;;;;;;;5.53;2.25;;;14.00;51.20;;;;;;6229809;28;20038;-73
2020/12/14 15:00:36;;;;;;;5.80;2.85;;;14.00;51.10;;;;;;6239682;28;20471;-74
2020/12/14 15:03:36;;;;;;;6.72;2.83;;;14.00;51.10;;;;;;6256179;28;20052;-73
2020/12/14 15:06:38;;;;;;;5.63;3.10;;;14.00;51.20;;;;;;6257059;28;20548;-73
2020/12/14 15:09:39;;;;;;;5.78;3.22;;;13.90;51.20;;;;;;6253445;28;20124;-72
2020/12/14 15:12:42;;;;;;;6.00;3.22;;;13.90;51.20;;;;;;6256646;28;20057;-74
2020/12/14 15:15:44;;;;;;;6.78;3.65;;;13.90;51.30;;;;;;6252537;28;20120;-73
2020/12/14 15:18:45;;;;;;;12.80;4.10;;;13.90;51.30;;;;;;6229196;28;20029;-73
2020/12/14 15:21:46;;;;;;;4.65;2.85;;;13.80;51.30;;;;;;6257756;28;20053;-73
2020/12/14 15:24:47;;;;;;;10.23;3.28;;;13.80;51.30;;;;;;6261543;28;20030;-73
2020/12/14 15:27:48;;;;;;;7.30;2.55;;;13.80;51.30;;;;;;6254571;28;20087;-72
2020/12/14 15:30:50;;;;;;;10.50;2.70;;;13.80;51.30;;;;;;6255624;28;20071;-72
2020/12/14 15:33:51;;;;;;;12.65;3.20;;;13.70;51.10;;;;;;6239009;28;20038;-73
2020/12/14 15:36:53;;;;;;;11.35;3.45;;;13.70;51.30;;;;;;6256875;28;20029;-74
2020/12/14 15:39:57;;;;;;;11.07;3.30;;;13.60;51.30;;;;;;6229113;28;21242;-73
2020/12/14 15:42:58;;;;;;;5.47;3.00;;;13.60;51.30;;;;;;6253609;28;20040;-73
2020/12/14 15:45:59;;;;;;;5.90;2.53;;;13.60;51.40;;;;;;6259544;28;20056;-72
2020/12/14 15:49:00;;;;;;;5.05;2.55;;;13.50;51.60;;;;;;6262134;28;20044;-72
2020/12/14 15:52:26;;;;;;;7.35;2.67;;;13.40;51.70;;;;;;6247090;28;20037;-74